Time;durP1;ratioP1;P1;durP2;ratioP2;P2;SDS_P1;SDS_P2;PMS_P1;PMS_P2;Temp;Humidity;BMP_temperature;BMP_pressure;BME280_temperature;BME280_humidity;BME280_pressure;Samples;Min_cycle;Max_cycle;Signal;HPM_P1;HPM_P2
2023/03/03 00:00:58;;;;;;;7.68;4.70;;;;;;;;;;10451393;28;20469;-57
2023/03/03 00:05:59;;;;;;;9.75;5.15;;;;;;;;;;10451676;28;20029;-57
2023/03/03 00:11:02;;;;;;;10.88;4.88;;;;;;;;;;10451537;28;20017;-57
2023/03/03 00:16:36;;;;;;;9.00;5.00;;;;;;;;;;10451592;28;20063;-57
2023/03/03 00:21:43;;;;;;;8.07;4.40;;;;;;;;;;10451067;28;20357;-57
2023/03/03 00:26:59;;;;;;;8.32;4.93;;;;;;;;;;10451499;28;20021;-57
2023/03/03 00:32:30;;;;;;;6.75;4.57;;;;;;;;;;10450571;28;20376;-57
2023/03/03 00:37:34;;;;;;;5.80;4.22;;;;;;;;;;10450681;28;20454;-56
2023/03/03 00:42:35;;;;;;;6.93;4.57;;;;;;;;;;10450272;28;20094;-56
2023/03/03 00:47:37;;;;;;;6.32;4.35;;;;;;;;;;10450837;28;20031;-56
2023/03/03 00:52:44;;;;;;;8.50;4.65;;;;;;;;;;10450623;28;20029;-57
2023/03/03 00:57:46;;;;;;;8.07;4.53;;;;;;;;;;10433258;28;20059;-56
2023/03/03 01:02:47;;;;;;;12.82;5.20;;;;;;;;;;10450317;28;20035;-56
2023/03/03 01:07:47;;;;;;;7.65;4.75;;;;;;;;;;10450206;28;20033;-58
2023/03/03 01:12:48;;;;;;;6.05;4.38;;;;;;;;;;10448642;28;20472;-58
2023/03/03 01:17:50;;;;;;;7.72;4.22;;;;;;;;;;10449527;28;20434;-59
2023/03/03 01:22:50;;;;;;;6.55;4.57;;;;;;;;;;10449317;28;20025;-58
2023/03/03 01:27:51;;;;;;;6.25;4.00;;;;;;;;;;10449390;28;20021;-57
2023/03/03 01:32:52;;;;;;;7.57;4.30;;;;;;;;;;10449119;28;20029;-57
2023/03/03 01:37:52;;;;;;;5.57;4.20;;;;;;;;;;10449026;28;20573;-57
2023/03/03 01:42:53;;;;;;;6.30;4.07;;;;;;;;;;10448391;28;20092;-57
2023/03/03 01:48:02;;;;;;;7.40;4.13;;;;;;;;;;10449496;28;20048;-58
2023/03/03 01:53:08;;;;;;;9.05;4.38;;;;;;;;;;10448617;28;20033;-58
2023/03/03 01:58:25;;;;;;;6.15;4.10;;;;;;;;;;10431611;28;20033;-58
2023/03/03 02:03:26;;;;;;;8.90;4.30;;;;;;;;;;10448942;28;20041;-58
2023/03/03 02:08:39;;;;;;;4.60;4.03;;;;;;;;;;10449137;28;20048;-58
2023/03/03 02:13:40;;;;;;;5.55;4.10;;;;;;;;;;10447352;28;20414;-58
2023/03/03 02:18:41;;;;;;;5.95;4.10;;;;;;;;;;10448354;28;20031;-58
2023/03/03 02:23:50;;;;;;;6.40;3.92;;;;;;;;;;10450498;28;20419;-58
2023/03/03 02:28:51;;;;;;;6.63;3.60;;;;;;;;;;10455413;28;20031;-58
2023/03/03 02:33:53;;;;;;;5.28;3.65;;;;;;;;;;10454930;28;20025;-59
2023/03/03 02:39:04;;;;;;;7.00;4.00;;;;;;;;;;10454952;28;20108;-58
2023/03/03 02:44:11;;;;;;;4.88;3.78;;;;;;;;;;10454897;28;20351;-58
2023/03/03 02:49:17;;;;;;;4.18;3.47;;;;;;;;;;10454722;28;20021;-58
2023/03/03 02:54:20;;;;;;;6.05;4.30;;;;;;;;;;10454487;28;20051;-58
2023/03/03 02:59:21;;;;;;;6.63;3.58;;;;;;;;;;10454272;28;20053;-58
2023/03/03 03:04:25;;;;;;;5.75;3.72;;;;;;;;;;10454266;28;20026;-57
2023/03/03 03:09:27;;;;;;;4.47;3.58;;;;;;;;;;10454562;28;20112;-56
2023/03/03 03:14:27;;;;;;;5.47;3.80;;;;;;;;;;10453793;28;20029;-58
2023/03/03 03:19:28;;;;;;;4.50;3.58;;;;;;;;;;10453652;28;20534;-58
2023/03/03 03:24:29;;;;;;;4.97;3.47;;;;;;;;;;10453937;28;20037;-57
2023/03/03 03:29:29;;;;;;;4.85;3.35;;;;;;;;;;10453777;28;20024;-57
2023/03/03 03:34:30;;;;;;;5.88;3.50;;;;;;;;;;10451843;28;20472;-57
2023/03/03 03:39:30;;;;;;;4.03;3.17;;;;;;;;;;10452650;28;20427;-56
2023/03/03 03:44:31;;;;;;;8.45;3.42;;;;;;;;;;10452885;28;20163;-57
2023/03/03 03:49:31;;;;;;;6.10;3.65;;;;;;;;;;10452481;28;20356;-57
2023/03/03 03:54:32;;;;;;;5.50;3.40;;;;;;;;;;10452115;28;20396;-57
2023/03/03 03:59:33;;;;;;;5.28;3.30;;;;;;;;;;10452071;28;20040;-57
2023/03/03 04:04:33;;;;;;;3.92;3.42;;;;;;;;;;10452308;28;20021;-57
2023/03/03 04:09:34;;;;;;;4.68;3.33;;;;;;;;;;10451706;28;20036;-57
2023/03/03 04:14:34;;;;;;;7.28;3.28;;;;;;;;;;10451848;28;20044;-57
2023/03/03 04:19:35;;;;;;;6.13;3.65;;;;;;;;;;10451481;28;20029;-57
2023/03/03 04:24:36;;;;;;;5.07;3.30;;;;;;;;;;10451068;28;20036;-57
2023/03/03 04:29:36;;;;;;;4.68;3.15;;;;;;;;;;10451346;28;20036;-57
2023/03/03 04:34:37;;;;;;;4.85;2.95;;;;;;;;;;10450691;28;20036;-58
2023/03/03 04:39:37;;;;;;;4.13;3.35;;;;;;;;;;10450683;28;20060;-58
2023/03/03 04:44:38;;;;;;;6.65;4.00;;;;;;;;;;10450614;28;20048;-56
2023/03/03 04:49:38;;;;;;;5.85;3.30;;;;;;;;;;10450282;28;20036;-57
2023/03/03 04:54:39;;;;;;;3.35;3.03;;;;;;;;;;10449971;28;20032;-58
2023/03/03 04:59:40;;;;;;;5.05;2.92;;;;;;;;;;10450608;28;20268;-58
2023/03/03 05:04:40;;;;;;;3.13;2.60;;;;;;;;;;10449761;28;20028;-58
2023/03/03 05:09:41;;;;;;;4.18;3.20;;;;;;;;;;10449622;28;20361;-58
2023/03/03 05:14:42;;;;;;;3.45;2.63;;;;;;;;;;10447482;28;20032;-58
2023/03/03 05:19:42;;;;;;;5.88;3.17;;;;;;;;;;10449597;28;20040;-58
2023/03/03 05:24:43;;;;;;;3.20;2.75;;;;;;;;;;10450017;28;20033;-58
2023/03/03 05:29:43;;;;;;;3.80;2.67;;;;;;;;;;10450046;28;20079;-58
2023/03/03 05:34:44;;;;;;;2.95;2.65;;;;;;;;;;10449142;28;20028;-58
2023/03/03 05:39:44;;;;;;;6.50;3.22;;;;;;;;;;10450170;28;20025;-58
2023/03/03 05:44:45;;;;;;;4.07;2.97;;;;;;;;;;10448803;28;20307;-58
2023/03/03 05:49:46;;;;;;;3.72;2.67;;;;;;;;;;10449189;28;20104;-57
2023/03/03 05:54:46;;;;;;;5.25;3.05;;;;;;;;;;10448840;28;20041;-57
2023/03/03 05:59:56;;;;;;;3.35;2.83;;;;;;;;;;10452469;28;20086;-57
2023/03/03 06:04:56;;;;;;;5.53;2.70;;;;;;;;;;10456208;28;20021;-58
2023/03/03 06:09:57;;;;;;;3.38;2.70;;;;;;;;;;10456509;28;20388;-58
2023/03/03 06:14:57;;;;;;;2.50;2.30;;;;;;;;;;10456050;28;20033;-59
2023/03/03 06:19:58;;;;;;;4.32;2.63;;;;;;;;;;10455887;28;20186;-58
2023/03/03 06:24:58;;;;;;;9.23;2.58;;;;;;;;;;10455606;28;20040;-59
2023/03/03 06:29:59;;;;;;;2.72;2.53;;;;;;;;;;10455741;28;20025;-59
2023/03/03 06:35:00;;;;;;;3.85;2.50;;;;;;;;;;10454928;28;20037;-60
2023/03/03 06:40:00;;;;;;;2.90;2.58;;;;;;;;;;10455652;28;20415;-59
2023/03/03 06:45:01;;;;;;;4.43;2.85;;;;;;;;;;10453283;28;20083;-60
2023/03/03 06:50:02;;;;;;;5.85;2.78;;;;;;;;;;10454965;28;20029;-64
2023/03/03 06:55:15;;;;;;;14.20;3.78;;;;;;;;;;10453535;28;20044;-60
2023/03/03 07:00:26;;;;;;;11.05;3.30;;;;;;;;;;10453091;28;20021;-60
2023/03/03 07:05:28;;;;;;;11.00;3.40;;;;;;;;;;10454186;28;20032;-60
2023/03/03 07:10:30;;;;;;;10.93;4.20;;;;;;;;;;10453306;28;20080;-61
2023/03/03 07:15:34;;;;;;;5.40;2.88;;;;;;;;;;10453732;28;20407;-60
2023/03/03 07:20:38;;;;;;;9.98;3.60;;;;;;;;;;10453505;28;20028;-60
2023/03/03 07:25:39;;;;;;;14.40;3.40;;;;;;;;;;10453606;28;20041;-60
2023/03/03 07:30:41;;;;;;;7.18;3.78;;;;;;;;;;10453142;28;20037;-60
2023/03/03 07:35:43;;;;;;;12.60;3.70;;;;;;;;;;10453188;28;20040;-60
2023/03/03 07:40:53;;;;;;;11.50;3.75;;;;;;;;;;10453245;28;20075;-60
2023/03/03 07:46:10;;;;;;;5.55;3.10;;;;;;;;;;10435398;28;20209;-60
2023/03/03 07:51:24;;;;;;;14.45;3.65;;;;;;;;;;10452449;28;20029;-59
2023/03/03 07:56:33;;;;;;;4.07;2.50;;;;;;;;;;10452346;28;20029;-59
2023/03/03 08:01:44;;;;;;;4.15;2.92;;;;;;;;;;10451184;28;20040;-60
2023/03/03 08:07:15;;;;;;;7.32;2.85;;;;;;;;;;10452343;28;20107;-60
2023/03/03 08:12:40;;;;;;;6.28;2.95;;;;;;;;;;10434519;28;20033;-59
2023/03/03 08:17:44;;;;;;;5.55;2.70;;;;;;;;;;10451747;28;20044;-59
2023/03/03 08:22:44;;;;;;;4.55;2.85;;;;;;;;;;10450112;28;20552;-59
2023/03/03 08:27:45;;;;;;;12.32;2.90;;;;;;;;;;10451058;28;20043;-60
2023/03/03 08:32:45;;;;;;;7.20;3.28;;;;;;;;;;10450948;28;20036;-61
2023/03/03 08:37:46;;;;;;;4.65;2.80;;;;;;;;;;10451209;28;20029;-60
2023/03/03 08:42:47;;;;;;;7.13;3.08;;;;;;;;;;10450786;28;20041;-59
2023/03/03 08:47:48;;;;;;;7.82;2.70;;;;;;;;;;10450934;28;20091;-59
2023/03/03 08:52:49;;;;;;;6.35;3.30;;;;;;;;;;10450550;28;20473;-60
2023/03/03 08:57:49;;;;;;;7.35;3.05;;;;;;;;;;10450703;28;20139;-60
2023/03/03 09:02:51;;;;;;;5.25;3.00;;;;;;;;;;10449770;28;20557;-59
2023/03/03 09:07:53;;;;;;;6.63;2.97;;;;;;;;;;10450402;28;20457;-60
2023/03/03 09:13:01;;;;;;;8.02;2.92;;;;;;;;;;10450163;28;20048;-59
2023/03/03 09:18:07;;;;;;;4.67;3.10;;;;;;;;;;10450035;28;20040;-59
2023/03/03 09:23:41;;;;;;;6.60;3.58;;;;;;;;;;10450500;28;20036;-60
2023/03/03 09:28:42;;;;;;;4.03;2.88;;;;;;;;;;10389057;28;20033;-64
2023/03/03 09:33:48;;;;;;;4.85;2.67;;;;;;;;;;10451690;28;20476;-60
2023/03/03 09:38:50;;;;;;;4.88;2.60;;;;;;;;;;10457730;28;20384;-60
2023/03/03 09:44:16;;;;;;;6.05;2.78;;;;;;;;;;10457302;28;20515;-59
2023/03/03 09:49:40;;;;;;;8.23;2.72;;;;;;;;;;10457687;28;20025;-60
2023/03/03 09:55:26;;;;;;;4.38;2.33;;;;;;;;;;10456948;28;20134;-59
2023/03/03 10:00:54;;;;;;;5.10;2.65;;;;;;;;;;10456987;28;20033;-60
2023/03/03 10:06:14;;;;;;;;;;;;;;;;;;10440866;28;20021;-60
2023/03/03 10:12:09;;;;;;;4.95;2.63;;;;;;;;;;10456330;28;19912;-59
2023/03/03 10:18:06;;;;;;;5.32;2.80;;;;;;;;;;10455995;28;20044;-60
2023/03/03 10:23:20;;;;;;;5.32;2.95;;;;;;;;;;10367673;28;20077;-62
2023/03/03 10:28:58;;;;;;;3.65;2.30;;;;;;;;;;10367470;28;20038;-59
2023/03/03 10:34:26;;;;;;;5.28;2.67;;;;;;;;;;10337299;28;20042;-60
2023/03/03 10:40:09;;;;;;;7.63;2.70;;;;;;;;;;10367256;28;20509;-60
2023/03/03 10:45:30;;;;;;;3.25;2.47;;;;;;;;;;10354622;28;20421;-60
2023/03/03 10:51:04;;;;;;;5.63;2.60;;;;;;;;;;10366588;28;20046;-60
2023/03/03 10:56:31;;;;;;;3.22;2.63;;;;;;;;;;10414417;28;20060;-59
2023/03/03 11:01:57;;;;;;;3.60;2.35;;;;;;;;;;10454396;28;20114;-60
2023/03/03 11:07:12;;;;;;;3.65;2.60;;;;;;;;;;10453545;28;20037;-59
2023/03/03 11:12:58;;;;;;;3.97;2.28;;;;;;;;;;10454420;28;20044;-59
2023/03/03 11:18:26;;;;;;;5.30;2.33;;;;;;;;;;10453941;28;20503;-62
2023/03/03 11:23:38;;;;;;;2.70;2.50;;;;;;;;;;10436465;28;20032;-59
2023/03/03 11:29:17;;;;;;;5.13;2.25;;;;;;;;;;10453473;28;20025;-60
2023/03/03 11:35:26;;;;;;;4.80;2.42;;;;;;;;;;10428711;28;20124;-60
2023/03/03 11:40:39;;;;;;;2.67;2.40;;;;;;;;;;10408650;28;20045;-60
2023/03/03 11:45:48;;;;;;;3.47;2.35;;;;;;;;;;10436372;28;20036;-60
2023/03/03 11:51:05;;;;;;;3.42;2.38;;;;;;;;;;10435906;28;20039;-59
2023/03/03 11:56:21;;;;;;;2.72;2.35;;;;;;;;;;10434156;28;20150;-59
2023/03/03 12:01:43;;;;;;;2.60;2.40;;;;;;;;;;10452074;28;20025;-59
2023/03/03 12:07:33;;;;;;;2.75;2.35;;;;;;;;;;10452395;28;20036;-60
2023/03/03 12:12:42;;;;;;;2.58;2.20;;;;;;;;;;10452637;28;20036;-59
2023/03/03 12:17:45;;;;;;;4.25;2.58;;;;;;;;;;10451996;28;20110;-59
2023/03/03 12:23:06;;;;;;;2.17;1.95;;;;;;;;;;10451891;28;20021;-59
2023/03/03 12:28:26;;;;;;;3.20;2.20;;;;;;;;;;10451359;28;20476;-60
2023/03/03 12:33:51;;;;;;;2.22;2.03;;;;;;;;;;10450124;28;20025;-60
2023/03/03 12:39:03;;;;;;;2.92;2.13;;;;;;;;;;10451275;28;20035;-60
2023/03/03 12:44:49;;;;;;;2.65;2.13;;;;;;;;;;10449594;28;20284;-60
2023/03/03 12:50:08;;;;;;;2.80;2.00;;;;;;;;;;10442046;28;20045;-59
2023/03/03 12:55:18;;;;;;;3.13;2.33;;;;;;;;;;10450005;28;20120;-60
2023/03/03 13:00:26;;;;;;;5.53;2.20;;;;;;;;;;10450444;28;20033;-59
2023/03/03 13:06:14;;;;;;;3.30;2.05;;;;;;;;;;10450182;28;20021;-59
2023/03/03 13:11:52;;;;;;;3.85;2.47;;;;;;;;;;10416105;28;20032;-60
2023/03/03 13:17:18;;;;;;;6.30;2.40;;;;;;;;;;10450029;28;20033;-60
2023/03/03 13:22:38;;;;;;;3.50;2.40;;;;;;;;;;10449713;28;20116;-61
2023/03/03 13:27:42;;;;;;;2.88;2.17;;;;;;;;;;10447816;28;20511;-59
2023/03/03 13:32:57;;;;;;;2.30;2.10;;;;;;;;;;10431555;28;20023;-59
2023/03/03 13:37:59;;;;;;;4.63;2.17;;;;;;;;;;10431007;28;20530;-60
2023/03/03 13:43:11;;;;;;;3.00;2.03;;;;;;;;;;10447070;28;20386;-61
2023/03/03 13:48:50;;;;;;;2.35;1.95;;;;;;;;;;10432117;28;20273;-59
2023/03/03 13:54:02;;;;;;;2.50;2.00;;;;;;;;;;10448982;28;20029;-59
2023/03/03 13:59:22;;;;;;;4.20;2.05;;;;;;;;;;10447565;28;20037;-59
2023/03/03 14:05:04;;;;;;;3.60;2.00;;;;;;;;;;10430765;28;20484;-60
2023/03/03 14:10:17;;;;;;;3.00;2.00;;;;;;;;;;10448917;28;20049;-60
2023/03/03 14:15:26;;;;;;;2.50;2.25;;;;;;;;;;10448395;28;20487;-59
2023/03/03 14:20:42;;;;;;;3.20;2.40;;;;;;;;;;10434254;28;20056;-59
2023/03/03 14:25:56;;;;;;;2.80;1.90;;;;;;;;;;10439820;28;20049;-60
2023/03/03 14:30:59;;;;;;;5.22;1.85;;;;;;;;;;10456238;28;20024;-60
2023/03/03 14:36:03;;;;;;;2.72;1.90;;;;;;;;;;10454211;28;20032;-60
2023/03/03 14:41:15;;;;;;;1.88;1.77;;;;;;;;;;10454969;28;20045;-59
2023/03/03 14:46:40;;;;;;;3.90;2.08;;;;;;;;;;10455067;28;20134;-59
2023/03/03 14:51:47;;;;;;;2.00;1.90;;;;;;;;;;10455096;28;20036;-59
2023/03/03 14:57:09;;;;;;;4.97;2.20;;;;;;;;;;10436886;28;20491;-59
2023/03/03 15:02:16;;;;;;;3.15;1.88;;;;;;;;;;10451964;28;20036;-60
2023/03/03 15:07:36;;;;;;;2.05;1.83;;;;;;;;;;10454252;28;20027;-59
2023/03/03 15:12:39;;;;;;;4.95;1.90;;;;;;;;;;10454657;28;20021;-60
2023/03/03 15:18:03;;;;;;;3.15;2.10;;;;;;;;;;10453788;28;20049;-60
2023/03/03 15:23:12;;;;;;;5.68;2.30;;;;;;;;;;10453375;28;20128;-60
2023/03/03 15:28:49;;;;;;;13.55;2.60;;;;;;;;;;10453619;28;20021;-59
2023/03/03 15:34:32;;;;;;;9.43;2.25;;;;;;;;;;10429487;28;20490;-60
2023/03/03 15:39:50;;;;;;;3.70;1.70;;;;;;;;;;10452196;28;20467;-60
2023/03/03 15:45:05;;;;;;;1.77;1.67;;;;;;;;;;10449794;28;20053;-60
2023/03/03 15:50:35;;;;;;;4.82;2.22;;;;;;;;;;10451373;28;20388;-59
2023/03/03 15:55:51;;;;;;;3.80;2.30;;;;;;;;;;10436382;28;20029;-59
2023/03/03 16:01:22;;;;;;;3.58;2.00;;;;;;;;;;10452872;28;20029;-60
2023/03/03 16:06:52;;;;;;;3.33;1.98;;;;;;;;;;10451255;28;20029;-60
2023/03/03 16:12:08;;;;;;;3.65;1.90;;;;;;;;;;10435956;28;20044;-60
2023/03/03 16:18:07;;;;;;;6.85;2.25;;;;;;;;;;10451499;28;20426;-60
2023/03/03 16:23:49;;;;;;;10.15;2.85;;;;;;;;;;10433711;28;20477;-59
2023/03/03 16:29:08;;;;;;;5.25;2.42;;;;;;;;;;10322419;28;20129;-60
2023/03/03 16:34:17;;;;;;;4.75;2.10;;;;;;;;;;10321887;28;20042;-60
2023/03/03 16:39:45;;;;;;;6.18;2.50;;;;;;;;;;10322150;28;20058;-60
2023/03/03 16:45:34;;;;;;;8.50;2.43;;;;;;;;;;10321507;28;20050;-60
2023/03/03 16:50:56;;;;;;;;;;;;;;;;;;10321873;28;20565;-59
2023/03/03 16:56:23;;;;;;;4.13;2.00;;;;;;;;;;10321611;28;19933;-59
2023/03/03 17:01:29;;;;;;;7.78;2.00;;;;;;;;;;10380700;28;20048;-59
2023/03/03 17:06:57;;;;;;;6.43;2.17;;;;;;;;;;10448644;28;20492;-60
2023/03/03 17:12:25;;;;;;;4.30;2.30;;;;;;;;;;10448436;28;20489;-60
2023/03/03 17:17:53;;;;;;;7.33;2.47;;;;;;;;;;10449729;28;20041;-63
2023/03/03 17:23:38;;;;;;;2.63;2.03;;;;;;;;;;10449717;28;20040;-61
2023/03/03 17:29:07;;;;;;;4.78;2.47;;;;;;;;;;10434306;28;20039;-67
2023/03/03 17:34:51;;;;;;;4.50;2.22;;;;;;;;;;10449872;28;20052;-60
2023/03/03 17:40:25;;;;;;;5.22;2.40;;;;;;;;;;10449833;28;20107;-62
2023/03/03 17:45:29;;;;;;;4.13;2.15;;;;;;;;;;10448662;28;20492;-62
2023/03/03 17:51:15;;;;;;;7.70;2.72;;;;;;;;;;10449051;28;20428;-62
2023/03/03 17:56:42;;;;;;;7.55;2.40;;;;;;;;;;10454331;28;20120;-62
2023/03/03 18:02:51;;;;;;;8.23;2.67;;;;;;;;;;10414177;28;20048;-61
2023/03/03 18:08:01;;;;;;;10.57;2.20;;;;;;;;;;10287392;28;20118;-62
2023/03/03 18:13:33;;;;;;;4.18;1.73;;;;;;;;;;10287542;28;20427;-62
2023/03/03 18:19:28;;;;;;;6.72;2.17;;;;;;;;;;10286971;28;20594;-63
2023/03/03 18:24:50;;;;;;;3.35;2.22;;;;;;;;;;10263687;28;20118;-61
2023/03/03 18:30:32;;;;;;;4.40;2.08;;;;;;;;;;10286740;28;20035;-61
2023/03/03 18:35:43;;;;;;;3.38;2.30;;;;;;;;;;10286361;28;20042;-65
2023/03/03 18:41:00;;;;;;;4.43;2.35;;;;;;;;;;10378009;28;20041;-62
2023/03/03 18:46:00;;;;;;;3.78;2.20;;;;;;;;;;10453878;28;20044;-62
2023/03/03 18:51:01;;;;;;;6.53;2.95;;;;;;;;;;10455110;28;20029;-62
2023/03/03 18:56:08;;;;;;;7.15;2.53;;;;;;;;;;10453233;28;20029;-67
2023/03/03 19:01:34;;;;;;;6.13;2.95;;;;;;;;;;10437102;28;20104;-61
2023/03/03 19:06:35;;;;;;;9.73;3.03;;;;;;;;;;10453922;28;20025;-62
2023/03/03 19:11:48;;;;;;;19.60;4.65;;;;;;;;;;10452812;28;20028;-61
2023/03/03 19:16:51;;;;;;;6.68;3.20;;;;;;;;;;10454113;28;20115;-62
2023/03/03 19:22:22;;;;;;;8.70;3.92;;;;;;;;;;10453648;28;20024;-62
2023/03/03 19:27:32;;;;;;;6.72;3.10;;;;;;;;;;10435693;28;20385;-61
2023/03/03 19:33:37;;;;;;;8.35;3.05;;;;;;;;;;10453257;28;20025;-62
2023/03/03 19:39:05;;;;;;;9.18;3.97;;;;;;;;;;10451607;28;20392;-61
2023/03/03 19:45:01;;;;;;;9.45;3.38;;;;;;;;;;10465212;22;20049;-51
2023/03/03 19:50:33;;;;;;;11.50;3.67;;;;;;;;;;10452771;28;20058;-50
2023/03/03 19:55:45;;;;;;;9.68;3.45;;;;;;;;;;10452729;28;20033;-48
2023/03/03 20:00:54;;;;;;;9.73;3.50;;;;;;;;;;10434845;28;20029;-50
2023/03/03 20:06:38;;;;;;;15.77;4.32;;;;;;;;;;10435081;28;20031;-48
2023/03/03 20:12:01;;;;;;;17.35;4.70;;;;;;;;;;10451248;28;20060;-52
2023/03/03 20:17:51;;;;;;;14.05;4.30;;;;;;;;;;10449862;28;20116;-53
2023/03/03 20:22:54;;;;;;;13.50;4.38;;;;;;;;;;10450405;28;20029;-50
2023/03/03 20:28:44;;;;;;;13.23;3.97;;;;;;;;;;10451212;28;20056;-50
2023/03/03 20:34:06;;;;;;;9.70;4.00;;;;;;;;;;10449188;28;20024;-46
2023/03/03 20:39:27;;;;;;;6.95;3.75;;;;;;;;;;10448913;28;20021;-46
2023/03/03 20:44:39;;;;;;;25.08;5.90;;;;;;;;;;10450433;28;20045;-46
2023/03/03 20:50:10;;;;;;;17.65;5.88;;;;;;;;;;10449525;28;20033;-51
2023/03/03 20:55:42;;;;;;;25.08;5.65;;;;;;;;;;10449679;28;20029;-51
2023/03/03 21:00:53;;;;;;;14.02;5.43;;;;;;;;;;10449904;28;20029;-50
2023/03/03 21:06:03;;;;;;;13.10;5.03;;;;;;;;;;10449843;28;20269;-50
2023/03/03 21:11:06;;;;;;;15.77;5.55;;;;;;;;;;10449920;28;20075;-51
2023/03/03 21:16:26;;;;;;;16.35;5.47;;;;;;;;;;10450336;28;20090;-51
2023/03/03 21:21:30;;;;;;;19.42;5.63;;;;;;;;;;10450003;28;20046;-49
2023/03/03 21:26:53;;;;;;;13.27;5.65;;;;;;;;;;10432208;28;20533;-51
2023/03/03 21:31:59;;;;;;;10.60;5.57;;;;;;;;;;10456254;28;20029;-51
2023/03/03 21:37:04;;;;;;;11.05;5.05;;;;;;;;;;10457833;28;20032;-50
2023/03/03 21:42:11;;;;;;;21.25;5.00;;;;;;;;;;10457424;28;20218;-51
2023/03/03 21:47:17;;;;;;;13.90;5.47;;;;;;;;;;10457989;28;20063;-51
2023/03/03 21:52:20;;;;;;;11.45;5.25;;;;;;;;;;10457389;28;20051;-51
2023/03/03 21:57:21;;;;;;;10.23;5.93;;;;;;;;;;10457323;28;20037;-50
2023/03/03 22:02:21;;;;;;;14.55;5.65;;;;;;;;;;10458141;28;20396;-51
2023/03/03 22:07:22;;;;;;;12.15;5.65;;;;;;;;;;10456488;28;20477;-51
2023/03/03 22:12:23;;;;;;;19.58;6.00;;;;;;;;;;10456444;28;20033;-56
2023/03/03 22:17:24;;;;;;;19.05;6.20;;;;;;;;;;10456098;28;20032;-51
2023/03/03 22:22:24;;;;;;;18.65;6.18;;;;;;;;;;10456591;28;20036;-49
2023/03/03 22:27:25;;;;;;;26.40;5.85;;;;;;;;;;10455973;28;20534;-46
2023/03/03 22:32:27;;;;;;;11.20;5.82;;;;;;;;;;10456083;28;20017;-50
2023/03/03 22:37:27;;;;;;;13.38;5.28;;;;;;;;;;10455443;28;20112;-51
2023/03/03 22:42:28;;;;;;;15.15;5.50;;;;;;;;;;10453863;28;20381;-51
2023/03/03 22:47:29;;;;;;;16.70;5.65;;;;;;;;;;10455202;28;20416;-51
2023/03/03 22:52:29;;;;;;;20.48;5.90;;;;;;;;;;10454491;28;20044;-50
2023/03/03 22:57:30;;;;;;;15.88;5.10;;;;;;;;;;10454866;28;20033;-48
2023/03/03 23:02:30;;;;;;;11.10;4.95;;;;;;;;;;10454647;28;20079;-52
2023/03/03 23:07:31;;;;;;;11.27;5.18;;;;;;;;;;10454541;28;20033;-51
2023/03/03 23:12:32;;;;;;;11.98;5.43;;;;;;;;;;10454268;28;20032;-52
2023/03/03 23:17:32;;;;;;;8.88;4.80;;;;;;;;;;10454065;28;20024;-52
2023/03/03 23:22:33;;;;;;;17.35;5.32;;;;;;;;;;10453795;28;20048;-50
2023/03/03 23:27:33;;;;;;;10.88;5.22;;;;;;;;;;10453846;28;20380;-51
2023/03/03 23:32:34;;;;;;;12.50;4.88;;;;;;;;;;10453672;28;20388;-52
2023/03/03 23:37:35;;;;;;;9.77;5.18;;;;;;;;;;10453218;28;20079;-51
2023/03/03 23:42:35;;;;;;;8.10;4.80;;;;;;;;;;10452862;28;20044;-52
2023/03/03 23:47:36;;;;;;;11.73;5.65;;;;;;;;;;10453116;28;20036;-50
2023/03/03 23:52:36;;;;;;;13.15;5.00;;;;;;;;;;10451847;28;20241;-52
2023/03/03 23:57:37;;;;;;;10.35;4.93;;;;;;;;;;10453107;28;20119;-50
